Time;durP1;ratioP1;P1;durP2;ratioP2;P2;SDS_P1;SDS_P2;PMS_P1;PMS_P2;Temp;Humidity;BMP_temperature;BMP_pressure;BME280_temperature;BME280_humidity;BME280_pressure;Samples;Min_cycle;Max_cycle;Signal;HPM_P1;HPM_P2
2022/04/12 00:00:28;;;;;;;9.48;8.88;;;;;;;;;;5077078;28;20040;-48
2022/04/12 00:02:53;;;;;;;8.93;8.32;;;;;;;;;;5074015;28;20031;-47
2022/04/12 00:05:18;;;;;;;8.15;7.65;;;;;;;;;;5079785;28;20059;-52
2022/04/12 00:07:44;;;;;;;8.32;7.72;;;;;;;;;;5079559;28;20040;-51
2022/04/12 00:10:11;;;;;;;8.00;7.45;;;;;;;;;;5079045;28;20064;-50
2022/04/12 00:12:37;;;;;;;7.85;7.25;;;;;;;;;;5075221;28;20119;-48
2022/04/12 00:15:05;;;;;;;8.23;7.63;;;;;;;;;;5076689;28;20055;-47
2022/04/12 00:20:15;;;;;;;7.53;7.03;;;;;;;;;;5075366;28;20024;-48
2022/04/12 00:22:40;;;;;;;7.20;6.70;;;;;;;;;;5072792;28;20068;-50
2022/04/12 00:25:09;;;;;;;8.02;7.40;;;;;;;;;;5074969;28;20064;-51
2022/04/12 00:27:36;;;;;;;7.65;7.15;;;;;;;;;;5079073;28;20063;-48
2022/04/12 00:30:07;;;;;;;6.63;6.15;;;;;;;;;;5073107;28;20043;-51
2022/04/12 00:32:33;;;;;;;6.32;5.93;;;;;;;;;;5075374;28;20564;-47
2022/04/12 00:34:59;;;;;;;6.65;6.15;;;;;;;;;;5075645;28;20132;-48
2022/04/12 00:37:25;;;;;;;6.97;6.47;;;;;;;;;;5077398;28;20370;-47
2022/04/12 00:39:50;;;;;;;6.63;6.07;;;;;;;;;;5076494;28;20024;-55
2022/04/12 00:42:15;;;;;;;6.30;5.90;;;;;;;;;;5072195;28;20029;-48
2022/04/12 00:44:40;;;;;;;6.57;5.97;;;;;;;;;;5078004;28;20103;-47
2022/04/12 00:47:06;;;;;;;7.15;6.65;;;;;;;;;;5078104;28;20040;-48
2022/04/12 00:49:31;;;;;;;6.15;5.70;;;;;;;;;;5076615;28;20094;-46
2022/04/12 00:51:58;;;;;;;7.25;6.75;;;;;;;;;;5073602;28;20094;-51
2022/04/12 00:54:25;;;;;;;7.32;6.78;;;;;;;;;;5079440;28;20056;-47
2022/04/12 00:56:52;;;;;;;6.85;6.35;;;;;;;;;;5078305;28;20036;-54
2022/04/12 00:59:19;;;;;;;6.28;5.78;;;;;;;;;;5077589;28;20032;-47
2022/04/12 01:01:44;;;;;;;6.07;5.68;;;;;;;;;;5072870;28;20075;-52
2022/04/12 01:04:10;;;;;;;6.45;5.95;;;;;;;;;;5069269;28;20063;-52
2022/04/12 01:06:37;;;;;;;6.15;5.70;;;;;;;;;;5072775;28;20429;-46
2022/04/12 01:09:05;;;;;;;6.82;6.32;;;;;;;;;;5076926;28;20559;-46
2022/04/12 01:11:33;;;;;;;6.72;6.22;;;;;;;;;;5074106;28;20109;-47
2022/04/12 01:13:58;;;;;;;6.50;6.00;;;;;;;;;;5069431;28;20032;-46
2022/04/12 01:16:24;;;;;;;5.95;5.45;;;;;;;;;;5071135;28;20051;-48
2022/04/12 01:18:49;;;;;;;6.38;5.88;;;;;;;;;;5067664;28;21034;-47
2022/04/12 01:21:15;;;;;;;6.20;5.78;;;;;;;;;;5067186;28;20737;-48
2022/04/12 01:24:10;;;;;;;6.40;5.90;;;;;;;;;;5068617;28;20090;-48
2022/04/12 01:26:36;;;;;;;8.13;7.32;;;;;;;;;;5069552;28;20052;-48
2022/04/12 01:29:01;;;;;;;6.15;5.72;;;;;;;;;;5076231;28;20031;-46
2022/04/12 01:31:27;;;;;;;6.57;6.05;;;;;;;;;;5072673;28;20035;-47
2022/04/12 01:33:53;;;;;;;5.85;5.45;;;;;;;;;;5072978;28;20048;-54
2022/04/12 01:36:19;;;;;;;7.35;6.85;;;;;;;;;;5053535;28;20484;-48
2022/04/12 01:38:45;;;;;;;6.78;6.28;;;;;;;;;;5063976;28;20033;-55
2022/04/12 01:41:10;;;;;;;7.28;6.78;;;;;;;;;;5069836;28;20103;-53
2022/04/12 01:43:35;;;;;;;7.18;6.68;;;;;;;;;;5062925;28;20690;-55
2022/04/12 01:46:01;;;;;;;7.53;6.93;;;;;;;;;;5062387;28;20047;-50
2022/04/12 01:48:26;;;;;;;7.90;7.30;;;;;;;;;;5064965;28;20111;-53
2022/04/12 01:50:52;;;;;;;6.93;6.43;;;;;;;;;;5066649;28;20038;-55
2022/04/12 01:53:17;;;;;;;11.90;8.13;;;;;;;;;;5067330;28;20536;-52
2022/04/12 01:55:43;;;;;;;7.32;6.82;;;;;;;;;;5070361;28;20154;-46
2022/04/12 01:58:08;;;;;;;6.93;6.32;;;;;;;;;;5076919;28;20518;-47
2022/04/12 02:00:36;;;;;;;7.78;7.15;;;;;;;;;;5077282;28;20421;-52
2022/04/12 02:03:02;;;;;;;6.25;5.75;;;;;;;;;;5077594;28;20132;-46
2022/04/12 02:05:27;;;;;;;6.25;5.75;;;;;;;;;;5071797;28;20529;-47
2022/04/12 02:07:53;;;;;;;7.20;6.60;;;;;;;;;;5075402;28;20127;-49
2022/04/12 02:10:21;;;;;;;6.25;5.75;;;;;;;;;;5076674;28;20070;-46
2022/04/12 02:12:47;;;;;;;6.60;6.10;;;;;;;;;;5072320;28;20052;-51
2022/04/12 02:15:12;;;;;;;7.18;6.68;;;;;;;;;;5075183;28;20038;-47
2022/04/12 02:17:38;;;;;;;6.53;6.03;;;;;;;;;;5073966;28;20032;-46
2022/04/12 02:20:04;;;;;;;7.15;6.45;;;;;;;;;;5075706;28;20036;-48
2022/04/12 02:22:29;;;;;;;6.72;6.22;;;;;;;;;;5074574;28;20060;-50
2022/04/12 02:24:54;;;;;;;6.40;5.90;;;;;;;;;;5071478;28;20028;-51
2022/04/12 02:27:20;;;;;;;6.07;5.60;;;;;;;;;;5069384;28;20482;-46
2022/04/12 02:29:45;;;;;;;6.28;5.80;;;;;;;;;;5072918;28;20141;-48
2022/04/12 02:32:10;;;;;;;5.93;5.53;;;;;;;;;;5075214;28;20415;-49
2022/04/12 02:34:36;;;;;;;5.93;5.53;;;;;;;;;;5073434;28;20024;-50
2022/04/12 02:37:01;;;;;;;7.32;6.75;;;;;;;;;;5076328;28;20037;-53
2022/04/12 02:39:27;;;;;;;5.97;5.57;;;;;;;;;;5075261;28;20104;-54
2022/04/12 02:41:52;;;;;;;6.05;5.63;;;;;;;;;;5072612;28;20086;-49
2022/04/12 02:44:18;;;;;;;6.00;5.50;;;;;;;;;;5076104;28;20087;-50
2022/04/12 02:46:43;;;;;;;5.85;5.35;;;;;;;;;;5072524;28;20101;-47
2022/04/12 02:49:08;;;;;;;6.07;5.65;;;;;;;;;;5081302;28;20115;-54
2022/04/12 02:51:34;;;;;;;6.95;6.45;;;;;;;;;;5085201;28;20032;-52
2022/04/12 02:53:59;;;;;;;7.38;6.80;;;;;;;;;;5080770;28;20047;-52
2022/04/12 02:56:25;;;;;;;6.47;5.97;;;;;;;;;;5079279;28;20453;-46
2022/04/12 02:58:50;;;;;;;6.40;5.90;;;;;;;;;;5084174;28;20120;-46
2022/04/12 03:01:16;;;;;;;6.57;5.97;;;;;;;;;;5077801;28;20362;-54
2022/04/12 03:03:41;;;;;;;7.53;6.93;;;;;;;;;;5077605;28;20040;-53
2022/04/12 03:06:07;;;;;;;5.65;5.25;;;;;;;;;;5074295;28;20488;-55
2022/04/12 03:08:32;;;;;;;7.05;6.35;;;;;;;;;;5079939;28;20025;-54
2022/04/12 03:10:57;;;;;;;5.63;5.22;;;;;;;;;;5079178;28;20108;-52
2022/04/12 03:13:23;;;;;;;6.75;6.25;;;;;;;;;;5075120;28;20032;-53
2022/04/12 03:15:49;;;;;;;6.35;5.75;;;;;;;;;;5079395;28;20709;-51
2022/04/12 03:18:16;;;;;;;6.10;5.60;;;;;;;;;;5076621;28;20031;-53
2022/04/12 03:20:42;;;;;;;5.93;5.43;;;;;;;;;;5080863;28;20051;-50
2022/04/12 03:23:07;;;;;;;5.43;5.00;;;;;;;;;;5077518;28;20881;-52
2022/04/12 03:25:33;;;;;;;7.60;5.15;;;;;;;;;;5074654;28;20121;-50
2022/04/12 03:27:58;;;;;;;6.53;5.75;;;;;;;;;;5074134;28;20104;-52
2022/04/12 03:30:23;;;;;;;9.65;6.80;;;;;;;;;;5077073;28;20378;-52
2022/04/12 03:32:49;;;;;;;6.68;6.18;;;;;;;;;;5076654;28;20052;-54
2022/04/12 03:35:14;;;;;;;7.32;6.72;;;;;;;;;;5079080;28;20074;-52
2022/04/12 03:37:39;;;;;;;5.60;5.20;;;;;;;;;;5079371;28;20040;-53
2022/04/12 03:40:06;;;;;;;6.40;5.85;;;;;;;;;;5078809;28;20028;-54
2022/04/12 03:42:31;;;;;;;6.72;6.18;;;;;;;;;;5075270;28;20039;-50
2022/04/12 03:44:56;;;;;;;6.97;6.47;;;;;;;;;;5076460;28;20469;-50
2022/04/12 03:47:22;;;;;;;5.80;5.38;;;;;;;;;;5075669;28;20032;-48
2022/04/12 03:49:47;;;;;;;6.03;5.60;;;;;;;;;;5080273;28;20362;-51
2022/04/12 03:52:12;;;;;;;6.13;5.63;;;;;;;;;;5077300;28;20127;-51
2022/04/12 03:54:38;;;;;;;6.93;6.30;;;;;;;;;;5076449;28;20148;-49
2022/04/12 03:57:04;;;;;;;5.70;5.30;;;;;;;;;;5076216;28;20036;-50
2022/04/12 03:59:29;;;;;;;6.60;6.10;;;;;;;;;;5076011;28;20105;-49
2022/04/12 04:01:54;;;;;;;6.47;5.80;;;;;;;;;;5078112;28;20032;-46
2022/04/12 04:04:20;;;;;;;7.43;6.35;;;;;;;;;;5079678;28;20115;-45
2022/04/12 04:06:45;;;;;;;6.82;6.32;;;;;;;;;;5076305;28;20147;-47
2022/04/12 04:09:11;;;;;;;7.05;6.45;;;;;;;;;;5078486;28;20078;-46
2022/04/12 04:11:40;;;;;;;6.90;6.40;;;;;;;;;;5074646;28;20044;-53
2022/04/12 04:14:06;;;;;;;6.75;6.15;;;;;;;;;;5076345;28;20035;-54
2022/04/12 04:16:32;;;;;;;6.50;5.90;;;;;;;;;;5077398;28;20039;-51
2022/04/12 04:18:57;;;;;;;5.63;5.22;;;;;;;;;;5078071;28;20039;-53
2022/04/12 04:21:23;;;;;;;6.47;5.88;;;;;;;;;;5075551;28;20032;-53
2022/04/12 04:23:48;;;;;;;5.97;5.57;;;;;;;;;;5075450;28;20043;-53
2022/04/12 04:26:14;;;;;;;5.95;5.45;;;;;;;;;;5074907;28;20165;-55
2022/04/12 04:28:41;;;;;;;6.20;5.70;;;;;;;;;;5078829;28;20032;-54
2022/04/12 04:31:10;;;;;;;6.32;5.82;;;;;;;;;;5078920;28;20449;-53
2022/04/12 04:33:36;;;;;;;7.07;6.55;;;;;;;;;;5078759;28;20040;-53
2022/04/12 04:36:01;;;;;;;6.07;5.63;;;;;;;;;;5077951;28;20377;-55
2022/04/12 04:38:26;;;;;;;5.32;4.93;;;;;;;;;;5076483;28;20450;-50
2022/04/12 04:40:52;;;;;;;5.70;5.30;;;;;;;;;;5073736;28;20044;-48
2022/04/12 04:43:17;;;;;;;6.20;5.68;;;;;;;;;;5075979;28;20039;-46
2022/04/12 04:45:45;;;;;;;6.85;6.25;;;;;;;;;;5073765;28;20529;-54
2022/04/12 04:48:11;;;;;;;5.88;5.43;;;;;;;;;;5077697;28;20036;-48
2022/04/12 04:50:37;;;;;;;5.82;5.32;;;;;;;;;;5074508;28;20099;-46
2022/04/12 04:53:04;;;;;;;5.78;5.38;;;;;;;;;;5077024;28;20047;-54
2022/04/12 04:55:30;;;;;;;5.78;5.28;;;;;;;;;;5073702;28;20020;-48
2022/04/12 04:57:57;;;;;;;5.32;4.93;;;;;;;;;;5077246;28;20508;-47
2022/04/12 05:00:25;;;;;;;5.57;5.07;;;;;;;;;;5074646;28;20056;-46
2022/04/12 05:02:53;;;;;;;6.75;6.25;;;;;;;;;;5069037;28;20045;-47
2022/04/12 05:05:19;;;;;;;6.30;5.80;;;;;;;;;;5074008;28;20044;-49
2022/04/12 05:07:46;;;;;;;5.70;5.30;;;;;;;;;;5078012;28;20095;-50
2022/04/12 05:10:19;;;;;;;6.72;6.22;;;;;;;;;;5075624;28;20051;-51
2022/04/12 05:12:45;;;;;;;6.10;5.60;;;;;;;;;;5075058;28;20028;-50
2022/04/12 05:15:11;;;;;;;6.10;5.63;;;;;;;;;;5074608;28;20547;-52
2022/04/12 05:17:36;;;;;;;5.80;5.30;;;;;;;;;;5076496;28;20126;-51
2022/04/12 05:20:05;;;;;;;5.00;4.60;;;;;;;;;;5075216;28;20043;-56
2022/04/12 05:22:30;;;;;;;6.30;5.75;;;;;;;;;;5080727;28;20473;-51
2022/04/12 05:24:55;;;;;;;5.50;5.03;;;;;;;;;;5076167;28;20033;-52
2022/04/12 05:27:21;;;;;;;6.15;5.72;;;;;;;;;;5077162;28;20033;-47
2022/04/12 05:29:47;;;;;;;7.50;6.53;;;;;;;;;;5076085;28;20032;-48
2022/04/12 05:32:13;;;;;;;6.28;5.80;;;;;;;;;;5075106;28;20032;-56
2022/04/12 05:34:45;;;;;;;5.80;5.18;;;;;;;;;;5073155;28;20049;-53
2022/04/12 05:37:11;;;;;;;5.38;4.95;;;;;;;;;;5073215;28;20059;-54
2022/04/12 05:39:36;;;;;;;6.05;5.65;;;;;;;;;;5051051;28;20048;-55
2022/04/12 05:42:03;;;;;;;6.50;5.88;;;;;;;;;;5069606;28;20020;-54
2022/04/12 05:44:33;;;;;;;10.98;6.45;;;;;;;;;;5074891;28;20081;-50
2022/04/12 05:47:03;;;;;;;7.10;6.60;;;;;;;;;;5073053;28;20135;-47
2022/04/12 05:49:29;;;;;;;6.90;6.35;;;;;;;;;;5074297;28;20024;-47
2022/04/12 05:51:55;;;;;;;6.28;5.78;;;;;;;;;;5074192;28;20111;-47
2022/04/12 05:54:22;;;;;;;6.20;5.75;;;;;;;;;;5072458;28;20039;-47
2022/04/12 05:56:47;;;;;;;6.18;5.68;;;;;;;;;;5073094;28;20522;-50
2022/04/12 05:59:13;;;;;;;7.05;6.45;;;;;;;;;;5074382;28;20020;-48
2022/04/12 06:01:38;;;;;;;5.70;5.30;;;;;;;;;;5075509;28;20071;-48
2022/04/12 06:04:05;;;;;;;6.85;6.25;;;;;;;;;;5074124;28;20089;-55
2022/04/12 06:06:32;;;;;;;6.15;5.65;;;;;;;;;;5073310;28;20055;-55
2022/04/12 06:08:58;;;;;;;7.30;6.80;;;;;;;;;;5071366;28;20115;-54
2022/04/12 06:11:23;;;;;;;5.47;5.07;;;;;;;;;;5070666;28;20032;-55
2022/04/12 06:13:49;;;;;;;5.88;5.47;;;;;;;;;;5072937;28;20021;-49
2022/04/12 06:16:14;;;;;;;6.00;5.60;;;;;;;;;;5074894;28;20119;-47
2022/04/12 06:18:40;;;;;;;7.25;6.75;;;;;;;;;;5072395;28;20028;-47
2022/04/12 06:21:05;;;;;;;8.35;7.75;;;;;;;;;;5073458;28;20100;-50
2022/04/12 06:23:31;;;;;;;8.10;7.47;;;;;;;;;;5071613;28;20086;-49
2022/04/12 06:25:56;;;;;;;7.45;6.95;;;;;;;;;;5071799;28;20051;-50
2022/04/12 06:28:22;;;;;;;9.65;8.98;;;;;;;;;;5071337;28;20082;-49
2022/04/12 06:30:50;;;;;;;9.23;8.43;;;;;;;;;;5074065;28;20504;-48
2022/04/12 06:33:15;;;;;;;9.48;8.88;;;;;;;;;;5069929;28;20182;-49
2022/04/12 06:35:41;;;;;;;14.65;13.50;;;;;;;;;;5074841;28;20103;-47
2022/04/12 06:38:06;;;;;;;18.60;17.25;;;;;;;;;;5067068;28;20032;-56
2022/04/12 06:40:34;;;;;;;17.95;16.95;;;;;;;;;;5066984;28;20032;-56
2022/04/12 06:43:00;;;;;;;14.52;13.63;;;;;;;;;;5067782;28;20040;-56
2022/04/12 06:45:25;;;;;;;16.38;15.38;;;;;;;;;;5069822;28;20048;-55
2022/04/12 06:47:55;;;;;;;14.55;13.65;;;;;;;;;;5069170;28;20122;-57
2022/04/12 06:50:21;;;;;;;10.27;9.68;;;;;;;;;;5070152;28;20028;-57
2022/04/12 06:52:46;;;;;;;8.88;8.18;;;;;;;;;;5070281;28;20039;-57
2022/04/12 06:55:11;;;;;;;7.05;6.55;;;;;;;;;;5071212;28;20349;-48
2022/04/12 06:57:37;;;;;;;8.48;7.35;;;;;;;;;;5073345;28;20040;-47
2022/04/12 07:00:07;;;;;;;10.43;9.68;;;;;;;;;;5069373;28;20115;-48
2022/04/12 07:02:33;;;;;;;10.85;10.07;;;;;;;;;;5064762;28;20067;-48
2022/04/12 07:04:59;;;;;;;10.10;9.30;;;;;;;;;;5066475;28;20036;-48
2022/04/12 07:07:24;;;;;;;12.25;11.52;;;;;;;;;;5069002;28;20068;-51
2022/04/12 07:09:49;;;;;;;22.35;21.05;;;;;;;;;;5073025;28;20438;-49
2022/04/12 07:12:15;;;;;;;17.33;16.33;;;;;;;;;;5072679;28;20058;-47
2022/04/12 07:14:40;;;;;;;29.90;28.30;;;;;;;;;;5068790;28;20100;-48
2022/04/12 07:17:05;;;;;;;34.28;32.47;;;;;;;;;;5070696;28;20044;-47
2022/04/12 07:19:31;;;;;;;37.42;35.33;;;;;;;;;;5072328;28;20027;-47
2022/04/12 07:21:56;;;;;;;40.30;38.10;;;;;;;;;;5076340;28;20040;-56
2022/04/12 07:24:22;;;;;;;29.25;27.75;;;;;;;;;;5067406;28;20044;-50
2022/04/12 07:26:47;;;;;;;33.45;31.75;;;;;;;;;;5066191;28;20050;-49
2022/04/12 07:29:13;;;;;;;34.22;32.42;;;;;;;;;;5068623;28;20517;-49
2022/04/12 07:31:38;;;;;;;32.63;30.92;;;;;;;;;;5064584;28;20045;-48
2022/04/12 07:34:04;;;;;;;30.88;29.27;;;;;;;;;;5063992;28;20059;-51
2022/04/12 07:36:30;;;;;;;33.28;31.52;;;;;;;;;;5062283;28;20036;-48
2022/04/12 07:38:55;;;;;;;22.83;21.55;;;;;;;;;;5065508;28;20136;-48
2022/04/12 07:41:20;;;;;;;26.15;23.85;;;;;;;;;;5070029;28;20032;-47
2022/04/12 07:43:47;;;;;;;28.23;26.73;;;;;;;;;;5072391;28;20036;-47
2022/04/12 07:46:13;;;;;;;17.73;16.65;;;;;;;;;;5074512;28;20039;-48
2022/04/12 07:48:39;;;;;;;24.77;23.48;;;;;;;;;;5074891;28;20044;-48
2022/04/12 07:51:05;;;;;;;19.25;18.13;;;;;;;;;;5073995;28;20043;-48
2022/04/12 07:53:30;;;;;;;15.60;14.73;;;;;;;;;;5075368;28;20031;-49
2022/04/12 07:55:56;;;;;;;14.93;13.98;;;;;;;;;;5073033;28;20062;-49
2022/04/12 07:58:21;;;;;;;16.67;15.60;;;;;;;;;;5073145;28;20047;-48
2022/04/12 08:00:47;;;;;;;12.68;11.88;;;;;;;;;;5074169;28;20113;-49
2022/04/12 08:03:13;;;;;;;13.65;12.85;;;;;;;;;;5076031;28;20446;-51
2022/04/12 08:05:38;;;;;;;11.77;10.98;;;;;;;;;;5079847;28;20032;-48
2022/04/12 08:08:05;;;;;;;13.68;12.88;;;;;;;;;;5075829;28;20135;-47
2022/04/12 08:10:30;;;;;;;9.45;8.85;;;;;;;;;;5075829;28;20461;-48
2022/04/12 08:12:56;;;;;;;9.27;8.48;;;;;;;;;;5079703;28;20039;-51
2022/04/12 08:15:22;;;;;;;9.95;9.27;;;;;;;;;;5078207;28;20081;-48
2022/04/12 08:17:48;;;;;;;10.82;10.10;;;;;;;;;;5076909;28;20032;-48
2022/04/12 08:20:13;;;;;;;9.35;8.55;;;;;;;;;;5074708;28;20048;-50
2022/04/12 08:22:40;;;;;;;9.85;8.95;;;;;;;;;;5073358;28;20040;-49
2022/04/12 08:25:06;;;;;;;8.75;8.15;;;;;;;;;;5078054;28;20040;-50
2022/04/12 08:27:32;;;;;;;14.82;13.88;;;;;;;;;;5078811;28;20161;-51
2022/04/12 08:29:57;;;;;;;27.52;25.88;;;;;;;;;;5073343;28;20476;-48
2022/04/12 08:32:22;;;;;;;19.30;18.20;;;;;;;;;;5070169;28;20028;-51
2022/04/12 08:34:48;;;;;;;57.88;54.90;;;;;;;;;;5071998;28;20067;-47
2022/04/12 08:37:13;;;;;;;39.28;37.08;;;;;;;;;;5076507;28;20484;-50
2022/04/12 08:39:39;;;;;;;45.65;43.25;;;;;;;;;;5076100;28;20039;-48
2022/04/12 08:42:05;;;;;;;75.78;71.97;;;;;;;;;;5073635;28;20098;-48
2022/04/12 08:44:33;;;;;;;67.38;64.00;;;;;;;;;;5075441;28;20024;-48
2022/04/12 08:47:00;;;;;;;64.65;61.38;;;;;;;;;;5077146;28;20595;-50
2022/04/12 08:49:26;;;;;;;92.15;87.53;;;;;;;;;;5076254;28;20032;-47
2022/04/12 08:51:52;;;;;;;72.85;69.18;;;;;;;;;;5073886;28;20112;-47
2022/04/12 08:54:18;;;;;;;46.92;44.50;;;;;;;;;;5076633;28;20032;-47
2022/04/12 08:56:48;;;;;;;91.35;86.70;;;;;;;;;;5072987;28;20427;-48
2022/04/12 08:59:13;;;;;;;78.78;74.88;;;;;;;;;;5078881;28;20051;-50
2022/04/12 09:01:41;;;;;;;92.35;87.80;;;;;;;;;;5072413;28;20060;-51
2022/04/12 09:04:07;;;;;;;94.63;89.82;;;;;;;;;;5068385;28;20036;-47
2022/04/12 09:06:32;;;;;;;86.80;82.47;;;;;;;;;;5071033;28;20118;-48
2022/04/12 09:09:12;;;;;;;73.28;69.50;;;;;;;;;;5070179;28;20040;-51
2022/04/12 09:11:43;;;;;;;67.90;64.45;;;;;;;;;;5065164;28;20470;-48
2022/04/12 09:14:15;;;;;;;87.38;82.88;;;;;;;;;;5067825;28;20056;-51
2022/04/12 09:16:43;;;;;;;56.05;53.13;;;;;;;;;;5068822;28;20075;-51
2022/04/12 09:19:08;;;;;;;52.03;49.30;;;;;;;;;;5068507;28;20047;-47
2022/04/12 09:21:34;;;;;;;50.03;47.40;;;;;;;;;;5067355;28;20031;-50
2022/04/12 09:24:01;;;;;;;38.17;36.17;;;;;;;;;;5063446;28;20036;-48
2022/04/12 09:26:30;;;;;;;40.03;37.92;;;;;;;;;;5068138;28;20045;-48
2022/04/12 09:28:58;;;;;;;37.45;35.33;;;;;;;;;;5062530;28;20051;-49
2022/04/12 09:31:25;;;;;;;40.22;38.13;;;;;;;;;;5062210;28;20151;-49
2022/04/12 09:33:52;;;;;;;50.78;48.15;;;;;;;;;;5069353;28;20484;-49
2022/04/12 09:36:18;;;;;;;48.22;45.72;;;;;;;;;;5067219;28;20084;-48
2022/04/12 09:38:46;;;;;;;38.20;36.20;;;;;;;;;;5069101;28;20032;-49
2022/04/12 09:41:24;;;;;;;40.55;38.33;;;;;;;;;;5068477;28;20065;-48
2022/04/12 09:44:12;;;;;;;49.65;47.08;;;;;;;;;;5067717;28;20367;-49
2022/04/12 09:46:39;;;;;;;40.47;38.33;;;;;;;;;;5070972;28;20038;-50
2022/04/12 09:49:06;;;;;;;41.25;39.03;;;;;;;;;;5071119;28;20143;-50
2022/04/12 09:51:34;;;;;;;39.38;37.30;;;;;;;;;;5068400;28;20042;-50
2022/04/12 09:53:59;;;;;;;39.47;37.40;;;;;;;;;;5070000;28;20033;-50
2022/04/12 09:56:27;;;;;;;40.20;38.10;;;;;;;;;;5067792;28;20122;-49
2022/04/12 09:59:02;;;;;;;52.58;49.88;;;;;;;;;;5070116;28;20590;-51
2022/04/12 10:01:28;;;;;;;54.60;51.78;;;;;;;;;;5069900;28;20032;-50
2022/04/12 10:03:56;;;;;;;56.50;53.60;;;;;;;;;;5068066;28;20515;-59
2022/04/12 10:06:24;;;;;;;66.18;62.83;;;;;;;;;;5068963;28;20036;-59
2022/04/12 10:08:54;;;;;;;53.92;51.15;;;;;;;;;;5066737;28;20373;-59
2022/04/12 10:11:20;;;;;;;74.07;70.32;;;;;;;;;;5067034;28;20046;-60
2022/04/12 10:13:46;;;;;;;79.32;75.25;;;;;;;;;;5063343;28;20040;-59
2022/04/12 10:16:15;;;;;;;67.47;64.03;;;;;;;;;;5066811;28;20031;-59
2022/04/12 10:18:40;;;;;;;83.35;79.22;;;;;;;;;;5068937;28;20032;-59
2022/04/12 10:21:06;;;;;;;90.13;85.47;;;;;;;;;;5065127;28;20063;-59
2022/04/12 10:23:33;;;;;;;91.32;86.82;;;;;;;;;;5046545;28;20036;-58
2022/04/12 10:26:00;;;;;;;83.63;79.35;;;;;;;;;;5069095;28;20119;-58
2022/04/12 10:28:28;;;;;;;78.00;74.00;;;;;;;;;;5066258;28;21215;-59
2022/04/12 10:31:02;;;;;;;81.35;77.32;;;;;;;;;;5065791;28;20041;-59
2022/04/12 10:33:29;;;;;;;55.88;52.97;;;;;;;;;;5067156;28;20029;-59
2022/04/12 10:35:55;;;;;;;81.93;77.82;;;;;;;;;;5065691;28;20387;-58
2022/04/12 10:38:25;;;;;;;75.07;71.38;;;;;;;;;;5066387;28;20035;-59
2022/04/12 10:40:52;;;;;;;51.08;48.42;;;;;;;;;;5068551;28;20109;-58
2022/04/12 10:43:38;;;;;;;52.45;49.78;;;;;;;;;;5069583;28;20044;-57
2022/04/12 10:46:08;;;;;;;55.17;52.35;;;;;;;;;;5065846;28;20033;-59
2022/04/12 10:48:34;;;;;;;55.58;52.75;;;;;;;;;;5070481;28;20036;-59
2022/04/12 10:51:03;;;;;;;27.80;26.30;;;;;;;;;;5070633;28;20031;-59
2022/04/12 10:53:40;;;;;;;34.92;33.10;;;;;;;;;;5067232;28;20060;-58
2022/04/12 10:56:12;;;;;;;27.30;25.80;;;;;;;;;;5070669;28;20089;-59
2022/04/12 10:58:39;;;;;;;28.55;27.05;;;;;;;;;;5066512;28;20526;-59
2022/04/12 11:01:08;;;;;;;23.60;22.30;;;;;;;;;;5066746;28;20032;-58
2022/04/12 11:03:45;;;;;;;23.30;21.95;;;;;;;;;;5068309;28;20089;-59
2022/04/12 11:06:12;;;;;;;14.48;13.60;;;;;;;;;;5068538;28;20039;-59
2022/04/12 11:08:38;;;;;;;18.67;17.48;;;;;;;;;;5068267;28;20039;-59
2022/04/12 11:11:06;;;;;;;25.48;24.10;;;;;;;;;;5068536;28;20048;-57
2022/04/12 11:13:34;;;;;;;12.23;11.30;;;;;;;;;;5070652;28;20033;-58
2022/04/12 11:16:10;;;;;;;15.40;14.50;;;;;;;;;;5070952;28;20718;-57
2022/04/12 11:18:59;;;;;;;17.98;17.00;;;;;;;;;;5067233;28;20088;-60
2022/04/12 11:22:05;;;;;;;15.27;14.38;;;;;;;;;;5066221;28;20027;-57
2022/04/12 11:24:32;;;;;;;13.73;12.93;;;;;;;;;;5067417;28;20119;-52
2022/04/12 11:27:02;;;;;;;15.60;14.63;;;;;;;;;;5072389;28;20052;-48
2022/04/12 11:29:29;;;;;;;15.38;14.48;;;;;;;;;;5070581;28;20039;-48
2022/04/12 11:31:55;;;;;;;16.30;15.40;;;;;;;;;;5064837;28;20048;-49
2022/04/12 11:34:22;;;;;;;17.52;16.52;;;;;;;;;;5070972;28;20036;-49
2022/04/12 11:36:58;;;;;;;20.52;19.40;;;;;;;;;;5069725;28;20950;-57
2022/04/12 11:39:31;;;;;;;21.77;20.58;;;;;;;;;;5070927;28;20457;-57
2022/04/12 11:42:02;;;;;;;27.73;26.27;;;;;;;;;;5073619;28;20043;-57
2022/04/12 11:44:27;;;;;;;23.70;22.45;;;;;;;;;;5069610;28;20055;-57
2022/04/12 11:47:03;;;;;;;43.42;41.15;;;;;;;;;;5067701;28;20569;-49
2022/04/12 11:49:29;;;;;;;27.17;25.70;;;;;;;;;;5070030;28;20068;-48
2022/04/12 11:51:57;;;;;;;30.30;28.75;;;;;;;;;;5068781;28;20035;-49
2022/04/12 11:54:48;;;;;;;33.80;32.05;;;;;;;;;;5066415;28;20032;-49
2022/04/12 11:57:21;;;;;;;32.55;30.88;;;;;;;;;;5070619;28;20042;-51
2022/04/12 11:59:50;;;;;;;26.17;24.75;;;;;;;;;;5068408;28;20525;-50
2022/04/12 12:02:21;;;;;;;39.88;37.83;;;;;;;;;;5066493;28;20028;-50
2022/04/12 12:05:05;;;;;;;21.95;20.75;;;;;;;;;;5066417;28;20040;-48
2022/04/12 12:07:35;;;;;;;18.55;17.55;;;;;;;;;;5066367;28;20040;-49
2022/04/12 12:10:07;;;;;;;19.17;18.10;;;;;;;;;;5067235;28;20135;-49
2022/04/12 12:12:38;;;;;;;16.92;15.98;;;;;;;;;;5064871;28;20048;-50
2022/04/12 12:15:12;;;;;;;;;;;;;;;;;;5067718;28;20049;-59
2022/04/12 12:17:39;;;;;;;23.13;21.85;;;;;;;;;;5065442;28;19921;-58
2022/04/12 12:20:07;;;;;;;19.85;18.42;;;;;;;;;;5064214;28;20154;-59
2022/04/12 12:22:40;;;;;;;21.98;20.80;;;;;;;;;;5069814;28;20093;-59
2022/04/12 12:25:07;;;;;;;21.02;19.83;;;;;;;;;;5069404;28;20040;-59
2022/04/12 12:27:33;;;;;;;20.35;19.25;;;;;;;;;;5065597;28;20036;-58
2022/04/12 12:30:00;;;;;;;30.52;28.92;;;;;;;;;;5070410;28;20498;-59
2022/04/12 12:32:30;;;;;;;27.95;26.50;;;;;;;;;;5067896;28;20036;-49
2022/04/12 12:35:01;;;;;;;29.23;27.70;;;;;;;;;;5064667;28;20036;-53
2022/04/12 12:37:26;;;;;;;34.63;32.78;;;;;;;;;;5068388;28;20044;-59
2022/04/12 12:39:51;;;;;;;33.63;31.88;;;;;;;;;;5067430;28;20075;-60
2022/04/12 12:42:17;;;;;;;29.58;28.08;;;;;;;;;;5067262;28;20028;-59
2022/04/12 12:44:42;;;;;;;29.38;27.85;;;;;;;;;;5068444;28;20067;-59
2022/04/12 12:47:11;;;;;;;29.30;27.70;;;;;;;;;;5069985;28;20028;-60
2022/04/12 12:49:38;;;;;;;27.50;26.05;;;;;;;;;;5067489;28;20040;-59
2022/04/12 12:52:06;;;;;;;29.80;28.25;;;;;;;;;;5066870;28;20039;-59
2022/04/12 12:54:32;;;;;;;26.40;25.00;;;;;;;;;;5068851;28;20557;-59
2022/04/12 12:56:58;;;;;;;26.95;25.55;;;;;;;;;;5072730;28;20078;-51
2022/04/12 12:59:28;;;;;;;34.60;32.80;;;;;;;;;;5070603;28;20056;-53
2022/04/12 13:01:54;;;;;;;30.20;28.60;;;;;;;;;;5069610;28;20051;-59
2022/04/12 13:04:36;;;;;;;40.13;38.03;;;;;;;;;;5072225;28;20028;-59
2022/04/12 13:07:10;;;;;;;29.50;27.98;;;;;;;;;;5065161;28;20041;-60
2022/04/12 13:09:43;;;;;;;31.08;29.45;;;;;;;;;;5067854;28;20072;-58
2022/04/12 13:12:10;;;;;;;31.63;29.98;;;;;;;;;;5067367;28;20047;-51
2022/04/12 13:14:37;;;;;;;35.25;33.45;;;;;;;;;;5064876;28;20690;-52
2022/04/12 13:17:04;;;;;;;30.70;29.10;;;;;;;;;;5068041;28;20042;-53
2022/04/12 13:19:32;;;;;;;27.88;26.42;;;;;;;;;;5066234;28;20335;-50
2022/04/12 13:22:01;;;;;;;36.55;34.70;;;;;;;;;;5064559;28;20036;-50
2022/04/12 13:24:27;;;;;;;31.88;30.25;;;;;;;;;;5084853;28;20052;-52
2022/04/12 13:26:54;;;;;;;31.20;29.58;;;;;;;;;;5068236;28;20330;-49
2022/04/12 13:29:20;;;;;;;34.42;32.63;;;;;;;;;;5071732;28;20036;-53
2022/04/12 13:31:46;;;;;;;39.08;37.08;;;;;;;;;;5065182;28;20661;-50
2022/04/12 13:34:11;;;;;;;30.45;28.85;;;;;;;;;;5064844;28;20078;-50
2022/04/12 13:36:37;;;;;;;34.45;32.65;;;;;;;;;;5071116;28;20032;-50
2022/04/12 13:39:03;;;;;;;39.13;37.10;;;;;;;;;;5067693;28;20029;-58
2022/04/12 13:41:30;;;;;;;33.47;31.75;;;;;;;;;;5071014;28;20047;-59
2022/04/12 13:43:56;;;;;;;34.42;32.63;;;;;;;;;;5073399;28;20039;-53
2022/04/12 13:46:22;;;;;;;33.25;31.48;;;;;;;;;;5075527;28;20044;-59
2022/04/12 13:48:48;;;;;;;31.23;29.55;;;;;;;;;;5072984;28;20131;-59
2022/04/12 13:51:13;;;;;;;30.10;28.52;;;;;;;;;;5074225;28;20153;-58
2022/04/12 13:53:39;;;;;;;34.17;32.40;;;;;;;;;;5075032;28;20095;-59
2022/04/12 13:56:04;;;;;;;33.33;31.63;;;;;;;;;;5074965;28;20453;-58
2022/04/12 13:58:30;;;;;;;35.95;34.10;;;;;;;;;;5077443;28;20133;-59
2022/04/12 14:00:55;;;;;;;30.02;28.45;;;;;;;;;;5076091;28;20028;-49
2022/04/12 14:03:21;;;;;;;30.58;28.98;;;;;;;;;;5075443;28;20040;-49
2022/04/12 14:05:46;;;;;;;33.78;32.03;;;;;;;;;;5077888;28;20029;-50
2022/04/12 14:08:12;;;;;;;33.15;31.45;;;;;;;;;;5074833;28;20111;-48
2022/04/12 14:10:38;;;;;;;28.38;26.90;;;;;;;;;;5077351;28;20119;-48
2022/04/12 14:13:08;;;;;;;30.42;28.83;;;;;;;;;;5071989;28;20040;-49
2022/04/12 14:15:33;;;;;;;31.20;29.60;;;;;;;;;;5074849;28;20028;-58
2022/04/12 14:17:59;;;;;;;32.33;30.63;;;;;;;;;;5074973;28;20038;-58
2022/04/12 14:20:26;;;;;;;32.92;31.23;;;;;;;;;;5077067;28;20036;-58
2022/04/12 14:22:52;;;;;;;30.08;28.52;;;;;;;;;;5076702;28;20039;-58
2022/04/12 14:25:19;;;;;;;31.17;29.52;;;;;;;;;;5073663;28;20032;-59
2022/04/12 14:27:45;;;;;;;30.08;28.48;;;;;;;;;;5078382;28;20575;-51
2022/04/12 14:30:11;;;;;;;30.73;29.13;;;;;;;;;;5075948;28;20040;-49
2022/04/12 14:32:37;;;;;;;29.67;28.10;;;;;;;;;;5075285;28;20039;-59